createdAt,value
2023-05-12T00:02:26.086Z,100693.50
2023-05-12T00:05:15.853Z,100676.41
2023-05-12T00:08:02.474Z,100640.34
2023-05-12T00:10:51.488Z,100691.94
2023-05-12T00:13:40.219Z,100682.47
2023-05-12T00:16:26.548Z,100693.44
2023-05-12T00:19:13.148Z,100674.09
2023-05-12T00:22:08.715Z,100689.34
2023-05-12T00:24:55.732Z,100689.34
2023-05-12T00:27:41.857Z,100675.06
2023-05-12T00:30:30.226Z,100690.53
2023-05-12T00:33:17.348Z,100649.81
2023-05-12T00:36:07.272Z,100667.22
2023-05-12T00:38:53.321Z,100652.38
2023-05-12T00:41:39.951Z,100651.13
2023-05-12T00:44:29.275Z,100666.09
2023-05-12T00:47:15.788Z,100685.19
2023-05-12T00:50:06.027Z,100641.72
2023-05-12T00:52:53.288Z,100677.91
2023-05-12T00:55:39.421Z,100688.75
2023-05-12T00:58:28.122Z,100687.81
2023-05-12T01:01:20.873Z,100691.06
2023-05-12T01:04:10.987Z,100684.56
2023-05-12T01:07:06.022Z,100703.06
2023-05-12T01:09:56.753Z,100704.75
2023-05-12T01:12:45.877Z,100695.50
2023-05-12T01:15:33.012Z,100685.00
2023-05-12T01:18:20.727Z,100702.97
2023-05-12T01:21:11.080Z,100698.16
2023-05-12T01:23:59.815Z,100689.50
2023-05-12T01:26:48.242Z,100706.94
2023-05-12T01:29:35.921Z,100684.75
2023-05-12T01:32:23.861Z,100700.75
2023-05-12T01:35:16.867Z,100701.94
2023-05-12T01:38:16.234Z,100676.69
2023-05-12T01:41:11.426Z,100675.38
2023-05-12T01:43:58.208Z,100717.81
2023-05-12T01:46:45.038Z,100704.81
2023-05-12T01:49:38.386Z,100712.50
2023-05-12T01:52:28.392Z,100691.84
2023-05-12T01:55:14.567Z,100729.97
2023-05-12T01:58:09.067Z,100721.25
2023-05-12T02:00:55.480Z,100706.06
2023-05-12T02:03:41.382Z,100672.34
2023-05-12T02:06:36.747Z,100711.53
2023-05-12T02:09:23.087Z,100727.88
2023-05-12T02:12:17.023Z,100721.66
2023-05-12T02:15:04.654Z,100714.59
2023-05-12T02:17:54.631Z,100714.34
2023-05-12T02:20:42.000Z,100722.56
2023-05-12T02:23:31.493Z,100678.78
2023-05-12T02:26:19.764Z,100718.00
2023-05-12T02:29:06.086Z,100717.75
2023-05-12T02:31:52.509Z,100731.19
2023-05-12T02:34:39.849Z,100703.22
2023-05-12T02:37:26.050Z,100706.19
2023-05-12T02:40:16.373Z,100722.81
2023-05-12T02:43:04.117Z,100740.28
2023-05-12T02:45:55.452Z,100754.69
2023-05-12T02:48:41.706Z,100720.41
2023-05-12T02:51:29.413Z,100737.09
2023-05-12T02:54:15.849Z,100734.88
2023-05-12T02:57:06.733Z,100732.72
2023-05-12T02:59:52.570Z,100722.13
2023-05-12T03:02:40.109Z,100696.56
2023-05-12T03:05:29.605Z,100749.13
2023-05-12T03:08:24.542Z,100744.50
2023-05-12T03:11:10.582Z,100743.16
2023-05-12T03:13:56.886Z,100747.19
2023-05-12T03:16:42.937Z,100740.13
2023-05-12T03:19:30.349Z,100735.00
2023-05-12T03:22:18.786Z,100726.00
2023-05-12T03:25:05.472Z,100738.56
2023-05-12T03:27:51.589Z,100732.31
2023-05-12T03:30:38.181Z,100741.53
2023-05-12T03:33:24.348Z,100757.34
2023-05-12T03:36:12.624Z,100748.06
2023-05-12T03:38:58.924Z,100751.03
2023-05-12T03:41:54.290Z,100760.59
2023-05-12T03:44:40.981Z,100758.66
2023-05-12T03:47:29.080Z,100721.34
2023-05-12T03:50:15.794Z,100759.97
2023-05-12T03:53:03.317Z,100746.34
2023-05-12T03:55:56.261Z,100753.38
2023-05-12T03:58:56.427Z,100726.16
2023-05-12T04:01:48.383Z,100758.44
2023-05-12T04:04:37.317Z,100756.06
2023-05-12T04:07:31.241Z,100745.69
2023-05-12T04:10:25.066Z,100732.91
2023-05-12T04:13:16.945Z,100717.34
2023-05-12T04:16:09.906Z,100719.19
2023-05-12T04:18:57.763Z,100771.06
2023-05-12T04:21:45.332Z,100739.78
2023-05-12T04:24:31.918Z,100767.25
2023-05-12T04:27:19.139Z,100775.75
2023-05-12T04:30:09.779Z,100773.53
2023-05-12T04:33:00.276Z,100780.25
2023-05-12T04:35:47.495Z,100777.22
2023-05-12T04:38:37.411Z,100785.25
2023-05-12T04:41:23.954Z,100779.34
2023-05-12T04:44:11.891Z,100776.00
2023-05-12T04:47:00.130Z,100800.09
2023-05-12T04:49:47.990Z,100782.06
2023-05-12T04:52:34.604Z,100788.69
2023-05-12T04:55:22.417Z,100797.16
2023-05-12T04:58:09.156Z,100800.94
2023-05-12T05:00:57.052Z,100782.63
2023-05-12T05:03:43.751Z,100807.63
2023-05-12T05:06:31.265Z,100804.75
2023-05-12T05:09:18.373Z,100782.03
2023-05-12T05:12:06.187Z,100762.09
2023-05-12T05:14:53.065Z,100778.97
2023-05-12T05:17:40.517Z,100815.25
2023-05-12T05:20:29.348Z,100813.97
2023-05-12T05:23:16.346Z,100810.72
2023-05-12T05:26:02.881Z,100785.91
2023-05-12T05:28:55.106Z,100806.78
2023-05-12T05:31:43.535Z,100811.53
2023-05-12T05:34:31.610Z,100824.75
2023-05-12T05:37:19.505Z,100798.59
2023-05-12T05:40:07.867Z,100812.09
2023-05-12T05:42:54.144Z,100827.31
2023-05-12T05:45:40.682Z,100806.53
2023-05-12T05:48:27.919Z,100815.59
2023-05-12T05:51:15.458Z,100813.16
2023-05-12T05:54:04.857Z,100807.25
2023-05-12T05:56:51.731Z,100798.84
2023-05-12T05:59:39.397Z,100814.53
2023-05-12T06:02:26.303Z,100816.81
2023-05-12T06:05:17.054Z,100794.75
2023-05-12T06:08:05.775Z,100807.06
2023-05-12T06:10:53.066Z,100833.72
2023-05-12T06:13:40.071Z,100836.63
2023-05-12T06:16:26.756Z,100835.28
2023-05-12T06:19:13.481Z,100829.28
2023-05-12T06:22:00.251Z,100822.78
2023-05-12T06:24:48.206Z,100837.56
2023-05-12T06:27:36.673Z,100837.22
2023-05-12T06:30:30.065Z,100774.66
2023-05-12T06:33:23.616Z,100770.41
2023-05-12T06:36:12.915Z,100804.03
2023-05-12T06:39:02.976Z,100793.75
2023-05-12T06:41:52.393Z,100782.53
2023-05-12T06:44:43.295Z,100836.09
2023-05-12T06:47:32.135Z,100842.16
2023-05-12T06:50:21.054Z,100782.56
2023-05-12T06:53:21.854Z,100785.44
2023-05-12T06:56:17.546Z,100786.25
2023-05-12T06:59:08.677Z,100813.25
2023-05-12T07:02:03.365Z,100812.69
2023-05-12T07:04:54.119Z,100804.34
2023-05-12T07:07:45.366Z,100773.00
2023-05-12T07:10:39.164Z,100817.06
2023-05-12T07:13:29.946Z,100834.91
2023-05-12T07:16:22.510Z,100773.31
2023-05-12T07:19:14.078Z,100765.09
2023-05-12T07:22:05.689Z,100766.03
2023-05-12T07:24:53.907Z,100820.72
2023-05-12T07:27:48.350Z,100836.22
2023-05-12T07:30:37.765Z,100839.91
2023-05-12T07:33:27.965Z,100837.16
2023-05-12T07:36:23.132Z,100837.63
2023-05-12T07:39:20.555Z,100767.34
2023-05-12T07:42:17.625Z,100795.19
2023-05-12T07:45:06.353Z,100822.72
2023-05-12T07:47:59.930Z,100790.00
2023-05-12T07:50:58.167Z,100760.88
2023-05-12T07:53:52.715Z,100810.78
2023-05-12T07:56:44.058Z,100790.66
2023-05-12T07:59:33.387Z,100790.88
2023-05-12T08:02:22.414Z,100845.50
2023-05-12T08:05:11.108Z,100822.03
2023-05-12T08:08:06.152Z,100838.91
2023-05-12T08:10:55.294Z,100832.31
2023-05-12T08:13:46.334Z,100852.78
2023-05-12T08:16:35.648Z,100838.69
2023-05-12T08:19:24.082Z,100861.38
2023-05-12T08:22:11.535Z,100842.25
2023-05-12T08:24:59.176Z,100847.09
2023-05-12T08:27:46.396Z,100839.38
2023-05-12T08:30:34.762Z,100842.91
2023-05-12T08:33:21.793Z,100843.06
2023-05-12T08:36:10.302Z,100832.50
2023-05-12T08:38:58.569Z,100826.75
2023-05-12T08:42:11.746Z,100832.66
2023-05-12T08:45:00.722Z,100838.72
2023-05-12T08:47:49.545Z,100844.91
2023-05-12T08:50:37.150Z,100822.34
2023-05-12T08:53:26.331Z,100844.19
2023-05-12T08:59:07.202Z,100836.38
2023-05-12T09:01:56.503Z,100839.78
2023-05-12T09:04:45.726Z,100834.50
2023-05-12T09:07:34.180Z,100844.47
2023-05-12T09:13:21.119Z,100838.66
2023-05-12T09:16:13.625Z,100859.50
2023-05-12T09:19:04.576Z,100857.50
2023-05-12T09:21:56.703Z,100849.69
2023-05-12T09:24:45.755Z,100845.88
2023-05-12T09:27:33.243Z,100825.84
2023-05-12T09:30:30.467Z,100849.22
2023-05-12T09:33:17.629Z,100790.19
2023-05-12T09:36:03.649Z,100835.78
2023-05-12T09:39:07.197Z,100839.03
2023-05-12T09:41:54.324Z,100818.03
2023-05-12T09:44:42.550Z,100836.72
2023-05-12T09:47:36.222Z,100837.53
2023-05-12T09:50:24.069Z,100832.69
2023-05-12T09:53:12.341Z,100842.38
2023-05-12T09:56:00.515Z,100840.38
2023-05-12T09:58:49.213Z,100846.06
2023-05-12T10:01:37.333Z,100839.78
2023-05-12T10:04:23.984Z,100832.34
2023-05-12T10:07:13.424Z,100819.44
2023-05-12T10:10:02.393Z,100829.78
2023-05-12T10:12:49.650Z,100839.22
2023-05-12T10:15:37.440Z,100831.03
2023-05-12T10:18:25.287Z,100844.38
2023-05-12T10:21:13.328Z,100827.66
2023-05-12T10:24:04.418Z,100837.66
2023-05-12T10:26:52.386Z,100823.41
2023-05-12T10:29:39.928Z,100811.09
2023-05-12T10:32:27.354Z,100813.31
2023-05-12T10:35:16.307Z,100825.44
2023-05-12T10:38:14.028Z,100788.22
2023-05-12T10:41:02.270Z,100793.19
2023-05-12T10:43:50.662Z,100831.44
2023-05-12T10:46:38.066Z,100841.69
2023-05-12T10:49:33.639Z,100825.00
2023-05-12T10:52:20.504Z,100829.31
2023-05-12T10:55:12.678Z,100833.16
2023-05-12T10:58:13.421Z,100797.53
2023-05-12T11:01:10.028Z,100831.13
2023-05-12T11:03:59.221Z,100812.78
2023-05-12T11:06:47.025Z,100809.22
2023-05-12T11:09:36.920Z,100820.28
2023-05-12T11:12:33.303Z,100812.47
2023-05-12T11:15:20.138Z,100783.69
2023-05-12T11:18:06.318Z,100810.16
2023-05-12T11:20:52.838Z,100789.63
2023-05-12T11:23:38.595Z,100822.38
2023-05-12T11:26:25.119Z,100794.84
2023-05-12T11:29:11.417Z,100804.34
2023-05-12T11:31:58.998Z,100811.69
2023-05-12T11:34:45.584Z,100805.22
2023-05-12T11:37:37.032Z,100796.97
2023-05-12T11:40:23.864Z,100803.53
2023-05-12T11:43:12.042Z,100773.22
2023-05-12T11:45:59.932Z,100812.69
2023-05-12T11:48:54.889Z,100794.84
2023-05-12T11:51:43.762Z,100784.63
2023-05-12T11:54:30.792Z,100806.84
2023-05-12T11:57:28.638Z,100797.88
2023-05-12T12:00:15.830Z,100789.03
2023-05-12T12:03:09.919Z,100821.03
2023-05-12T12:06:03.651Z,100791.50
2023-05-12T12:08:55.666Z,100785.31
2023-05-12T12:11:41.976Z,100806.22
2023-05-12T12:14:28.590Z,100805.06
2023-05-12T12:17:15.474Z,100781.56
2023-05-12T12:20:01.799Z,100798.00
2023-05-12T12:22:48.450Z,100776.47
2023-05-12T12:25:34.834Z,100795.19
2023-05-12T12:28:21.380Z,100796.34
2023-05-12T12:31:07.164Z,100767.72
2023-05-12T12:33:53.552Z,100784.88
2023-05-12T12:36:39.535Z,100801.13
2023-05-12T12:39:25.962Z,100795.81
2023-05-12T12:42:11.574Z,100792.97
2023-05-12T12:44:58.130Z,100803.09
2023-05-12T12:47:44.338Z,100806.16
2023-05-12T12:50:30.650Z,100777.28
2023-05-12T12:53:17.229Z,100797.88
2023-05-12T12:56:04.500Z,100784.19
2023-05-12T12:58:51.464Z,100795.38
2023-05-12T13:01:38.076Z,100772.06
2023-05-12T13:04:24.430Z,100809.13
2023-05-12T13:07:11.011Z,100777.06
2023-05-12T13:09:57.267Z,100765.22
2023-05-12T13:12:44.571Z,100801.13
2023-05-12T13:15:33.113Z,100757.34
2023-05-12T13:18:20.922Z,100788.66
2023-05-12T13:21:07.280Z,100798.34
2023-05-12T13:23:55.299Z,100777.97
2023-05-12T13:26:42.882Z,100772.69
2023-05-12T13:29:30.863Z,100783.25
2023-05-12T13:32:21.674Z,100771.69
2023-05-12T13:35:10.473Z,100786.22
2023-05-12T13:37:57.173Z,100786.22
2023-05-12T13:40:44.820Z,100786.94
2023-05-12T13:43:31.432Z,100734.56
2023-05-12T13:46:18.296Z,100742.03
2023-05-12T13:49:05.240Z,100774.47
2023-05-12T13:51:57.858Z,100784.09
2023-05-12T13:54:50.474Z,100783.34
2023-05-12T13:57:37.190Z,100772.88
2023-05-12T14:00:24.560Z,100767.53
2023-05-12T14:03:22.776Z,100765.69
2023-05-12T14:06:19.309Z,100769.13
2023-05-12T14:09:17.198Z,100763.91
2023-05-12T14:12:05.450Z,100764.63
2023-05-12T14:14:58.115Z,100760.56
2023-05-12T14:17:51.829Z,100770.91
2023-05-12T14:20:46.347Z,100755.28
2023-05-12T14:23:39.817Z,100766.31
2023-05-12T14:26:33.461Z,100762.47
2023-05-12T14:29:22.801Z,100795.03
2023-05-12T14:32:09.167Z,100759.94
2023-05-12T14:34:55.751Z,100770.47
2023-05-12T14:37:43.309Z,100784.09
2023-05-12T14:40:32.398Z,100774.47
2023-05-12T14:43:18.824Z,100752.03
2023-05-12T14:46:06.378Z,100775.19
2023-05-12T14:48:53.035Z,100751.69
2023-05-12T14:51:42.184Z,100769.47
2023-05-12T14:54:36.218Z,100777.72
2023-05-12T14:57:24.863Z,100771.44
2023-05-12T15:00:15.246Z,100777.34
2023-05-12T15:03:04.648Z,100784.19
2023-05-12T15:08:41.183Z,100778.97
2023-05-12T15:11:47.855Z,100785.41
2023-05-12T15:14:37.654Z,100735.97
2023-05-12T15:17:28.587Z,100742.28
2023-05-12T15:20:18.639Z,100786.59
2023-05-12T15:23:05.707Z,100771.25
2023-05-12T15:25:52.406Z,100768.38
2023-05-12T15:28:42.556Z,100761.91
2023-05-12T15:31:41.577Z,100779.59
2023-05-12T15:34:40.948Z,100739.13
2023-05-12T15:37:28.608Z,100794.28
2023-05-12T15:40:18.301Z,100765.75
2023-05-12T15:43:15.358Z,100757.34
2023-05-12T15:46:05.707Z,100784.84
2023-05-12T15:48:55.233Z,100781.19
2023-05-12T15:51:44.258Z,100783.25
2023-05-12T15:54:38.892Z,100780.47
2023-05-12T15:57:29.484Z,100766.72
2023-05-12T16:00:27.201Z,100782.78
2023-05-12T16:03:25.264Z,100720.72
2023-05-12T16:06:18.142Z,100783.38
2023-05-12T16:09:15.453Z,100759.28
2023-05-12T16:12:14.523Z,100705.72
2023-05-12T16:15:12.521Z,100771.63
2023-05-12T16:18:05.878Z,100749.44
2023-05-12T16:21:02.466Z,100781.59
2023-05-12T16:23:49.977Z,100758.94
2023-05-12T16:26:37.908Z,100791.31
2023-05-12T16:29:28.792Z,100778.00
2023-05-12T16:32:31.210Z,100780.00
2023-05-12T16:35:32.183Z,100777.81
2023-05-12T16:38:27.675Z,100784.19
2023-05-12T16:41:35.428Z,100771.84
2023-05-12T16:44:24.521Z,100787.94
2023-05-12T16:47:15.871Z,100794.97
2023-05-12T16:50:18.404Z,100783.22
2023-05-12T16:53:11.656Z,100766.59
2023-05-12T16:56:13.408Z,100786.94
2023-05-12T16:59:20.968Z,100757.41
2023-05-12T17:02:14.092Z,100797.47
2023-05-12T17:05:02.470Z,100798.16
2023-05-12T17:07:55.812Z,100793.31
2023-05-12T17:10:54.580Z,100798.41
2023-05-12T17:13:51.448Z,100791.72
2023-05-12T17:16:52.718Z,100811.84
2023-05-12T17:19:42.179Z,100794.66
2023-05-12T17:22:29.349Z,100806.53
2023-05-12T17:25:17.018Z,100802.50
2023-05-12T17:28:03.361Z,100812.22
2023-05-12T17:30:50.234Z,100805.00
2023-05-12T17:33:36.599Z,100801.69
2023-05-12T17:36:23.310Z,100803.41
2023-05-12T17:39:09.149Z,100808.34
2023-05-12T17:41:55.639Z,100815.88
2023-05-12T17:44:43.736Z,100776.81
2023-05-12T17:47:30.944Z,100817.56
2023-05-12T17:50:17.311Z,100817.69
2023-05-12T17:53:08.911Z,100837.22
2023-05-12T17:55:54.996Z,100831.41
2023-05-12T17:58:51.915Z,100831.84
2023-05-12T18:01:38.929Z,100821.88
2023-05-12T18:04:25.577Z,100832.81
2023-05-12T18:07:11.623Z,100842.28
2023-05-12T18:10:01.794Z,100814.78
2023-05-12T18:12:48.582Z,100836.56
2023-05-12T18:15:38.433Z,100843.31
2023-05-12T18:18:24.581Z,100823.13
2023-05-12T18:21:14.247Z,100835.69
2023-05-12T18:24:01.055Z,100861.88
2023-05-12T18:26:48.415Z,100862.25
2023-05-12T18:29:36.067Z,100863.59
2023-05-12T18:32:25.637Z,100853.13
2023-05-12T18:35:15.980Z,100851.22
2023-05-12T18:38:02.350Z,100865.06
2023-05-12T18:40:50.534Z,100867.84
2023-05-12T18:43:38.013Z,100877.00
2023-05-12T18:46:24.059Z,100869.56
2023-05-12T18:49:16.797Z,100854.66
2023-05-12T18:52:05.714Z,100862.81
2023-05-12T18:54:52.348Z,100874.53
2023-05-12T18:57:38.547Z,100880.06
2023-05-12T19:00:27.613Z,100894.72
2023-05-12T19:03:14.112Z,100892.59
2023-05-12T19:06:05.824Z,100871.84
2023-05-12T19:08:55.247Z,100882.06
2023-05-12T19:11:45.147Z,100899.63
2023-05-12T19:14:38.238Z,100863.41
2023-05-12T19:17:33.002Z,100890.38
2023-05-12T19:20:26.898Z,100882.88
2023-05-12T19:23:23.627Z,100886.63
2023-05-12T19:26:17.818Z,100896.53
2023-05-12T19:29:12.583Z,100893.44
2023-05-12T19:32:01.042Z,100907.25
2023-05-12T19:34:54.068Z,100892.09
2023-05-12T19:37:43.077Z,100910.09
2023-05-12T19:40:30.706Z,100877.56
2023-05-12T19:43:17.337Z,100906.00
2023-05-12T19:46:06.348Z,100916.88
2023-05-12T19:48:54.895Z,100897.00
2023-05-12T19:51:42.348Z,100884.78
2023-05-12T19:54:28.631Z,100925.41
2023-05-12T19:57:15.837Z,100925.03
2023-05-12T20:00:02.261Z,100926.63
2023-05-12T20:02:59.093Z,100925.47
2023-05-12T20:05:46.673Z,100915.31
2023-05-12T20:08:36.456Z,100924.56
2023-05-12T20:11:28.444Z,100928.44
2023-05-12T20:14:18.997Z,100929.38
2023-05-12T20:17:07.571Z,100926.56
2023-05-12T20:19:57.395Z,100930.59
2023-05-12T20:22:43.424Z,100915.91
2023-05-12T20:25:32.709Z,100924.50
2023-05-12T20:28:18.796Z,100925.75
2023-05-12T20:31:05.335Z,100921.78
2023-05-12T20:33:56.976Z,100933.63
2023-05-12T20:36:47.341Z,100908.00
2023-05-12T20:39:33.579Z,100923.25
2023-05-12T20:42:23.034Z,100904.66
2023-05-12T20:45:09.519Z,100930.13
2023-05-12T20:47:57.370Z,100929.63
2023-05-12T20:50:48.738Z,100914.97
2023-05-12T20:53:37.251Z,100931.16
2023-05-12T20:56:27.512Z,100947.28
2023-05-12T20:59:14.690Z,100939.13
2023-05-12T21:02:05.191Z,100945.53
2023-05-12T21:04:57.010Z,100947.69
2023-05-12T21:07:48.736Z,100946.50
2023-05-12T21:10:42.708Z,100949.66
2023-05-12T21:13:32.006Z,100956.56
2023-05-12T21:16:24.479Z,100946.78
2023-05-12T21:19:15.418Z,100945.38
2023-05-12T21:22:10.803Z,100953.34
2023-05-12T21:24:59.687Z,100939.09
2023-05-12T21:27:49.589Z,100957.44
2023-05-12T21:30:38.856Z,100942.56
2023-05-12T21:33:30.695Z,100951.31
2023-05-12T21:36:23.260Z,100955.38
2023-05-12T21:39:17.409Z,100951.59
2023-05-12T21:42:07.294Z,100952.13
2023-05-12T21:44:58.692Z,100958.63
2023-05-12T21:47:52.332Z,100965.53
2023-05-12T21:50:42.063Z,100951.72
2023-05-12T21:53:31.242Z,100964.13
2023-05-12T21:56:23.995Z,100961.78
2023-05-12T21:59:13.524Z,100966.38
2023-05-12T22:02:02.944Z,100969.31
2023-05-12T22:04:49.815Z,100956.06
2023-05-12T22:07:39.240Z,100958.28
2023-05-12T22:10:27.952Z,100968.47
2023-05-12T22:13:17.256Z,100966.63
2023-05-12T22:16:12.422Z,100949.97
2023-05-12T22:19:03.471Z,100947.31
2023-05-12T22:21:53.193Z,100955.47
2023-05-12T22:24:40.677Z,100954.44
2023-05-12T22:27:28.605Z,100965.16
2023-05-12T22:30:19.918Z,100960.03
2023-05-12T22:33:11.234Z,100970.22
2023-05-12T22:36:00.201Z,100915.06
2023-05-12T22:38:46.313Z,100946.22
2023-05-12T22:41:32.250Z,100965.28
2023-05-12T22:44:18.252Z,100952.75
2023-05-12T22:47:05.945Z,100920.31
2023-05-12T22:49:51.993Z,100971.28
2023-05-12T22:52:38.652Z,100957.78
2023-05-12T22:55:27.477Z,100961.94
2023-05-12T22:58:14.010Z,100961.47
2023-05-12T23:01:01.101Z,100972.88
2023-05-12T23:03:47.171Z,100943.91
2023-05-12T23:06:33.428Z,100970.16
2023-05-12T23:09:19.395Z,100967.88
2023-05-12T23:12:05.696Z,100955.94
2023-05-12T23:14:51.742Z,100952.56
2023-05-12T23:17:37.886Z,100969.47
2023-05-12T23:20:36.084Z,100949.22
2023-05-12T23:23:21.691Z,100958.56
2023-05-12T23:26:09.256Z,100959.22
2023-05-12T23:28:55.015Z,100967.59
2023-05-12T23:31:41.076Z,100955.13
2023-05-12T23:34:26.860Z,100950.13
2023-05-12T23:37:12.993Z,100967.41
2023-05-12T23:39:59.706Z,100963.09
2023-05-12T23:42:46.106Z,100963.69
2023-05-12T23:45:32.091Z,100961.09
2023-05-12T23:48:18.248Z,100969.81
2023-05-12T23:51:04.505Z,100945.72
2023-05-12T23:53:51.850Z,100980.66
2023-05-12T23:56:37.478Z,100957.28
2023-05-12T23:59:23.595Z,100955.44
